sensor_id;sensor_type;location;lat;lon;timestamp;pressure;altitude;pressure_sealevel;temperature;humidity
58686;BME280;44465;53.206;-6.106;2023-07-13T00:00:18;101253.09;;;24.82;48.68
58686;BME280;44465;53.206;-6.106;2023-07-13T00:02:44;101236.16;;;24.80;48.75
58686;BME280;44465;53.206;-6.106;2023-07-13T00:05:09;101245.31;;;24.77;48.83
58686;BME280;44465;53.206;-6.106;2023-07-13T00:07:35;101241.09;;;24.73;48.71
58686;BME280;44465;53.206;-6.106;2023-07-13T00:10:02;101245.41;;;24.76;48.73
58686;BME280;44465;53.206;-6.106;2023-07-13T00:12:29;101251.19;;;24.70;48.67
58686;BME280;44465;53.206;-6.106;2023-07-13T00:14:57;101245.59;;;24.73;48.52
58686;BME280;44465;53.206;-6.106;2023-07-13T00:17:23;101258.47;;;24.68;48.83
58686;BME280;44465;53.206;-6.106;2023-07-13T00:19:48;101253.03;;;24.69;48.54
58686;BME280;44465;53.206;-6.106;2023-07-13T00:22:14;101254.88;;;24.69;48.57
58686;BME280;44465;53.206;-6.106;2023-07-13T00:24:39;101257.44;;;24.70;48.42
58686;BME280;44465;53.206;-6.106;2023-07-13T00:27:10;101255.53;;;24.72;48.56
58686;BME280;44465;53.206;-6.106;2023-07-13T00:29:36;101254.63;;;24.72;48.68
58686;BME280;44465;53.206;-6.106;2023-07-13T00:32:03;101255.53;;;24.72;48.52
58686;BME280;44465;53.206;-6.106;2023-07-13T00:34:29;101252.06;;;24.70;48.53
58686;BME280;44465;53.206;-6.106;2023-07-13T00:36:54;101252.16;;;24.69;48.42
58686;BME280;44465;53.206;-6.106;2023-07-13T00:39:20;101246.81;;;24.67;48.44
58686;BME280;44465;53.206;-6.106;2023-07-13T00:41:46;101253.97;;;24.68;48.51
58686;BME280;44465;53.206;-6.106;2023-07-13T00:44:16;101247.91;;;24.65;48.29
58686;BME280;44465;53.206;-6.106;2023-07-13T00:46:42;101249.72;;;24.64;48.41
58686;BME280;44465;53.206;-6.106;2023-07-13T00:49:10;101246.28;;;24.62;48.42
58686;BME280;44465;53.206;-6.106;2023-07-13T00:51:41;101253.16;;;24.66;48.65
58686;BME280;44465;53.206;-6.106;2023-07-13T00:54:12;101244.31;;;24.64;48.70
58686;BME280;44465;53.206;-6.106;2023-07-13T00:56:39;101250.47;;;24.66;48.54
58686;BME280;44465;53.206;-6.106;2023-07-13T00:59:07;101246.94;;;24.66;48.68
58686;BME280;44465;53.206;-6.106;2023-07-13T01:01:33;101240.13;;;24.60;48.34
58686;BME280;44465;53.206;-6.106;2023-07-13T01:04:00;101240.78;;;24.63;48.63
58686;BME280;44465;53.206;-6.106;2023-07-13T01:06:25;101233.66;;;24.62;48.45
58686;BME280;44465;53.206;-6.106;2023-07-13T01:08:51;101238.09;;;24.63;48.34
58686;BME280;44465;53.206;-6.106;2023-07-13T01:11:21;101230.13;;;24.62;48.70
58686;BME280;44465;53.206;-6.106;2023-07-13T01:13:47;101231.84;;;24.63;48.50
58686;BME280;44465;53.206;-6.106;2023-07-13T01:16:24;101233.84;;;24.59;48.30
58686;BME280;44465;53.206;-6.106;2023-07-13T01:18:50;101233.00;;;24.59;48.38
58686;BME280;44465;53.206;-6.106;2023-07-13T01:21:16;101238.38;;;24.59;48.54
58686;BME280;44465;53.206;-6.106;2023-07-13T01:23:41;101216.53;;;24.49;48.29
58686;BME280;44465;53.206;-6.106;2023-07-13T01:26:06;101222.41;;;24.56;48.68
58686;BME280;44465;53.206;-6.106;2023-07-13T01:28:32;101232.22;;;24.57;48.44
58686;BME280;44465;53.206;-6.106;2023-07-13T01:31:02;101234.91;;;24.57;48.36
58686;BME280;44465;53.206;-6.106;2023-07-13T01:33:28;101233.28;;;24.54;48.65
58686;BME280;44465;53.206;-6.106;2023-07-13T01:35:55;101231.44;;;24.55;48.87
58686;BME280;44465;53.206;-6.106;2023-07-13T01:38:23;101227.31;;;24.49;48.55
58686;BME280;44465;53.206;-6.106;2023-07-13T01:40:48;101230.88;;;24.50;48.75
58686;BME280;44465;53.206;-6.106;2023-07-13T01:43:14;101229.81;;;24.52;48.64
58686;BME280;44465;53.206;-6.106;2023-07-13T01:45:39;101216.75;;;24.46;48.32
58686;BME280;44465;53.206;-6.106;2023-07-13T01:48:05;101237.78;;;24.54;48.56
58686;BME280;44465;53.206;-6.106;2023-07-13T01:50:33;101232.41;;;24.54;48.26
58686;BME280;44465;53.206;-6.106;2023-07-13T01:52:58;101234.53;;;24.48;48.40
58686;BME280;44465;53.206;-6.106;2023-07-13T01:55:24;101222.22;;;24.44;48.46
58686;BME280;44465;53.206;-6.106;2023-07-13T01:57:49;101235.09;;;24.54;48.70
58686;BME280;44465;53.206;-6.106;2023-07-13T02:00:15;101222.81;;;24.50;48.75
58686;BME280;44465;53.206;-6.106;2023-07-13T02:02:46;101210.72;;;24.42;48.36
58686;BME280;44465;53.206;-6.106;2023-07-13T02:05:13;101229.03;;;24.50;48.32
58686;BME280;44465;53.206;-6.106;2023-07-13T02:07:41;101224.56;;;24.51;48.46
58686;BME280;44465;53.206;-6.106;2023-07-13T02:10:08;101220.22;;;24.48;48.38
58686;BME280;44465;53.206;-6.106;2023-07-13T02:12:34;101214.94;;;24.46;48.43
58686;BME280;44465;53.206;-6.106;2023-07-13T02:14:59;101220.97;;;24.50;48.46
58686;BME280;44465;53.206;-6.106;2023-07-13T02:17:26;101218.38;;;24.48;48.67
58686;BME280;44465;53.206;-6.106;2023-07-13T02:19:51;101211.47;;;24.44;48.74
58686;BME280;44465;53.206;-6.106;2023-07-13T02:22:17;101221.28;;;24.45;48.54
58686;BME280;44465;53.206;-6.106;2023-07-13T02:24:42;101224.72;;;24.47;48.23
58686;BME280;44465;53.206;-6.106;2023-07-13T02:27:08;101220.41;;;24.45;48.59
58686;BME280;44465;53.206;-6.106;2023-07-13T02:29:33;101223.00;;;24.46;48.66
58686;BME280;44465;53.206;-6.106;2023-07-13T02:31:59;101221.28;;;24.45;48.57
58686;BME280;44465;53.206;-6.106;2023-07-13T02:34:24;101225.81;;;24.45;48.54
58686;BME280;44465;53.206;-6.106;2023-07-13T02:36:50;101211.69;;;24.41;48.51
58686;BME280;44465;53.206;-6.106;2023-07-13T02:39:15;101216.09;;;24.42;48.62
58686;BME280;44465;53.206;-6.106;2023-07-13T02:41:41;101211.97;;;24.37;48.48
58686;BME280;44465;53.206;-6.106;2023-07-13T02:44:06;101224.19;;;24.42;48.57
58686;BME280;44465;53.206;-6.106;2023-07-13T02:46:36;101226.88;;;24.42;48.46
58686;BME280;44465;53.206;-6.106;2023-07-13T02:49:02;101226.88;;;24.42;48.34
58686;BME280;44465;53.206;-6.106;2023-07-13T02:51:28;101218.19;;;24.37;48.38
58686;BME280;44465;53.206;-6.106;2023-07-13T02:53:54;101226.16;;;24.39;48.65
58686;BME280;44465;53.206;-6.106;2023-07-13T02:56:27;101218.88;;;24.41;48.47
58686;BME280;44465;53.206;-6.106;2023-07-13T02:58:54;101225.13;;;24.41;48.48
58686;BME280;44465;53.206;-6.106;2023-07-13T03:01:20;101219.75;;;24.41;48.22
58686;BME280;44465;53.206;-6.106;2023-07-13T03:03:47;101227.22;;;24.36;48.72
58686;BME280;44465;53.206;-6.106;2023-07-13T03:06:14;101223.47;;;24.39;48.35
58686;BME280;44465;53.206;-6.106;2023-07-13T03:08:49;101230.59;;;24.40;48.66
58686;BME280;44465;53.206;-6.106;2023-07-13T03:11:18;101223.59;;;24.37;48.49
58686;BME280;44465;53.206;-6.106;2023-07-13T03:13:47;101219.16;;;24.36;48.54
58686;BME280;44465;53.206;-6.106;2023-07-13T03:16:14;101219.16;;;24.36;48.58
58686;BME280;44465;53.206;-6.106;2023-07-13T03:18:46;101222.72;;;24.37;48.38
58686;BME280;44465;53.206;-6.106;2023-07-13T03:21:11;101214.94;;;24.32;48.45
58686;BME280;44465;53.206;-6.106;2023-07-13T03:23:38;101219.16;;;24.36;48.60
58686;BME280;44465;53.206;-6.106;2023-07-13T03:26:18;101221.84;;;24.36;48.69
58686;BME280;44465;53.206;-6.106;2023-07-13T03:28:44;101215.69;;;24.34;48.22
58686;BME280;44465;53.206;-6.106;2023-07-13T03:31:18;101214.75;;;24.35;48.31
58686;BME280;44465;53.206;-6.106;2023-07-13T03:33:44;101201.88;;;24.26;48.57
58686;BME280;44465;53.206;-6.106;2023-07-13T03:36:15;101211.09;;;24.36;48.28
58686;BME280;44465;53.206;-6.106;2023-07-13T03:38:42;101217.66;;;24.32;48.39
58686;BME280;44465;53.206;-6.106;2023-07-13T03:41:08;101220.13;;;24.35;48.56
58686;BME280;44465;53.206;-6.106;2023-07-13T03:43:34;101203.03;;;24.22;48.40
58686;BME280;44465;53.206;-6.106;2023-07-13T03:45:59;101222.03;;;24.33;48.55
58686;BME280;44465;53.206;-6.106;2023-07-13T03:48:25;101232.81;;;24.33;48.27
58686;BME280;44465;53.206;-6.106;2023-07-13T03:50:50;101225.91;;;24.29;48.45
58686;BME280;44465;53.206;-6.106;2023-07-13T03:53:16;101238.19;;;24.33;48.57
58686;BME280;44465;53.206;-6.106;2023-07-13T03:55:41;101224.06;;;24.29;48.64
58686;BME280;44465;53.206;-6.106;2023-07-13T03:58:27;101211.09;;;24.22;48.68
58686;BME280;44465;53.206;-6.106;2023-07-13T04:00:56;101235.59;;;24.31;48.58
58686;BME280;44465;53.206;-6.106;2023-07-13T04:03:22;101229.38;;;24.31;48.28
58686;BME280;44465;53.206;-6.106;2023-07-13T04:05:48;101227.63;;;24.30;48.33
58686;BME280;44465;53.206;-6.106;2023-07-13T04:08:14;101215.44;;;24.24;48.41
58686;BME280;44465;53.206;-6.106;2023-07-13T04:10:39;101228.59;;;24.29;48.53
58686;BME280;44465;53.206;-6.106;2023-07-13T04:13:05;101233.19;;;24.27;48.40
58686;BME280;44465;53.206;-6.106;2023-07-13T04:15:31;101233.31;;;24.25;48.28
58686;BME280;44465;53.206;-6.106;2023-07-13T04:17:57;101239.53;;;24.26;48.46
58686;BME280;44465;53.206;-6.106;2023-07-13T04:20:24;101236.78;;;24.27;48.33
58686;BME280;44465;53.206;-6.106;2023-07-13T04:22:50;101243.19;;;24.25;48.55
58686;BME280;44465;53.206;-6.106;2023-07-13T04:25:16;101248.50;;;24.26;48.78
58686;BME280;44465;53.206;-6.106;2023-07-13T04:27:41;101246.75;;;24.25;48.22
58686;BME280;44465;53.206;-6.106;2023-07-13T04:30:07;101247.78;;;24.23;48.82
58686;BME280;44465;53.206;-6.106;2023-07-13T04:32:33;101244.91;;;24.26;48.44
58686;BME280;44465;53.206;-6.106;2023-07-13T04:34:58;101236.28;;;24.21;48.53
58686;BME280;44465;53.206;-6.106;2023-07-13T04:37:27;101234.56;;;24.20;48.42
58686;BME280;44465;53.206;-6.106;2023-07-13T04:39:54;101245.97;;;24.23;48.42
58686;BME280;44465;53.206;-6.106;2023-07-13T04:42:20;101251.19;;;24.26;48.27
58686;BME280;44465;53.206;-6.106;2023-07-13T04:44:49;101238.75;;;24.24;48.64
58686;BME280;44465;53.206;-6.106;2023-07-13T04:47:15;101246.66;;;24.27;48.34
58686;BME280;44465;53.206;-6.106;2023-07-13T04:49:40;101246.94;;;24.22;48.61
58686;BME280;44465;53.206;-6.106;2023-07-13T04:52:07;101248.69;;;24.23;48.29
58686;BME280;44465;53.206;-6.106;2023-07-13T04:54:33;101261.00;;;24.27;48.56
58686;BME280;44465;53.206;-6.106;2023-07-13T04:56:59;101260.13;;;24.27;48.52
58686;BME280;44465;53.206;-6.106;2023-07-13T04:59:25;101266.44;;;24.26;48.53
58686;BME280;44465;53.206;-6.106;2023-07-13T05:01:50;101257.72;;;24.22;48.71
58686;BME280;44465;53.206;-6.106;2023-07-13T05:04:16;101268.28;;;24.25;48.64
58686;BME280;44465;53.206;-6.106;2023-07-13T05:06:42;101257.72;;;24.22;48.61
58686;BME280;44465;53.206;-6.106;2023-07-13T05:09:07;101252.22;;;24.24;48.70
58686;BME280;44465;53.206;-6.106;2023-07-13T05:11:33;101258.56;;;24.23;48.58
58686;BME280;44465;53.206;-6.106;2023-07-13T05:13:58;101253.38;;;24.20;48.72
58686;BME280;44465;53.206;-6.106;2023-07-13T05:16:24;101262.31;;;24.20;48.82
58686;BME280;44465;53.206;-6.106;2023-07-13T05:18:49;101260.41;;;24.22;48.69
58686;BME280;44465;53.206;-6.106;2023-07-13T05:21:15;101259.72;;;24.19;48.77
58686;BME280;44465;53.206;-6.106;2023-07-13T05:23:41;101263.38;;;24.17;48.58
58686;BME280;44465;53.206;-6.106;2023-07-13T05:26:09;101252.59;;;24.17;48.80
58686;BME280;44465;53.206;-6.106;2023-07-13T05:28:35;101262.22;;;24.22;48.70
58686;BME280;44465;53.206;-6.106;2023-07-13T05:31:00;101268.56;;;24.21;48.60
58686;BME280;44465;53.206;-6.106;2023-07-13T05:33:26;101270.31;;;24.22;48.56
58686;BME280;44465;53.206;-6.106;2023-07-13T05:35:51;101271.16;;;24.22;48.64
58686;BME280;44465;53.206;-6.106;2023-07-13T05:38:17;101269.31;;;24.23;48.71
58686;BME280;44465;53.206;-6.106;2023-07-13T05:40:43;101266.06;;;24.17;48.54
58686;BME280;44465;53.206;-6.106;2023-07-13T05:43:09;101267.81;;;24.19;48.67
58686;BME280;44465;53.206;-6.106;2023-07-13T05:45:35;101267.97;;;24.15;48.66
58686;BME280;44465;53.206;-6.106;2023-07-13T05:48:00;101280.47;;;24.16;48.82
58686;BME280;44465;53.206;-6.106;2023-07-13T05:50:26;101280.28;;;24.20;48.53
58686;BME280;44465;53.206;-6.106;2023-07-13T05:52:52;101269.03;;;24.13;48.54
58686;BME280;44465;53.206;-6.106;2023-07-13T05:55:18;101282.22;;;24.17;48.59
58686;BME280;44465;53.206;-6.106;2023-07-13T05:57:43;101285.97;;;24.15;48.56
58686;BME280;44465;53.206;-6.106;2023-07-13T06:00:09;101277.00;;;24.14;48.77
58686;BME280;44465;53.206;-6.106;2023-07-13T06:02:38;101289.50;;;24.15;48.68
58686;BME280;44465;53.206;-6.106;2023-07-13T06:05:03;101275.47;;;24.10;48.90
58686;BME280;44465;53.206;-6.106;2023-07-13T06:07:30;101278.06;;;24.12;48.82
58686;BME280;44465;53.206;-6.106;2023-07-13T06:09:55;101283.06;;;24.18;48.71
58686;BME280;44465;53.206;-6.106;2023-07-13T06:12:21;101277.00;;;24.14;48.55
58686;BME280;44465;53.206;-6.106;2023-07-13T06:14:46;101278.75;;;24.15;48.74
58686;BME280;44465;53.206;-6.106;2023-07-13T06:17:12;101278.91;;;24.12;48.46
58686;BME280;44465;53.206;-6.106;2023-07-13T06:19:38;101289.50;;;24.15;48.51
58686;BME280;44465;53.206;-6.106;2023-07-13T06:22:03;101289.50;;;24.15;48.92
58686;BME280;44465;53.206;-6.106;2023-07-13T06:24:29;101302.00;;;24.16;48.61
58686;BME280;44465;53.206;-6.106;2023-07-13T06:26:54;101293.16;;;24.14;48.69
58686;BME280;44465;53.206;-6.106;2023-07-13T06:29:20;101293.16;;;24.14;48.80
58686;BME280;44465;53.206;-6.106;2023-07-13T06:31:45;101291.63;;;24.10;48.71
58686;BME280;44465;53.206;-6.106;2023-07-13T06:34:11;101304.03;;;24.13;48.54
58686;BME280;44465;53.206;-6.106;2023-07-13T06:36:36;101303.13;;;24.12;48.82
58686;BME280;44465;53.206;-6.106;2023-07-13T06:39:03;101297.00;;;24.10;48.69
58686;BME280;44465;53.206;-6.106;2023-07-13T06:41:29;101295.94;;;24.13;48.97
58686;BME280;44465;53.206;-6.106;2023-07-13T06:43:57;101303.84;;;24.16;48.93
58686;BME280;44465;53.206;-6.106;2023-07-13T06:46:22;101311.03;;;24.15;48.69
58686;BME280;44465;53.206;-6.106;2023-07-13T06:48:48;101293.16;;;24.14;48.67
58686;BME280;44465;53.206;-6.106;2023-07-13T06:51:14;101307.38;;;24.16;48.78
58686;BME280;44465;53.206;-6.106;2023-07-13T06:53:40;101302.00;;;24.16;48.99
58686;BME280;44465;53.206;-6.106;2023-07-13T06:56:05;101303.91;;;24.14;49.01
58686;BME280;44465;53.206;-6.106;2023-07-13T06:58:33;101303.06;;;24.14;48.87
58686;BME280;44465;53.206;-6.106;2023-07-13T07:00:58;101301.31;;;24.13;48.58
58686;BME280;44465;53.206;-6.106;2023-07-13T07:03:24;101303.13;;;24.12;48.83
58686;BME280;44465;53.206;-6.106;2023-07-13T07:05:49;101312.94;;;24.13;49.09
58686;BME280;44465;53.206;-6.106;2023-07-13T07:08:15;101310.53;;;24.09;48.86
58686;BME280;44465;53.206;-6.106;2023-07-13T07:10:40;101307.09;;;24.07;48.86
58686;BME280;44465;53.206;-6.106;2023-07-13T07:13:06;101317.47;;;24.13;48.95
58686;BME280;44465;53.206;-6.106;2023-07-13T07:15:31;101322.94;;;24.11;48.91
58686;BME280;44465;53.206;-6.106;2023-07-13T07:17:57;101320.06;;;24.14;48.83
58686;BME280;44465;53.206;-6.106;2023-07-13T07:20:22;101321.97;;;24.12;48.65
58686;BME280;44465;53.206;-6.106;2023-07-13T07:22:48;101328.91;;;24.16;49.06
58686;BME280;44465;53.206;-6.106;2023-07-13T07:25:14;101329.78;;;24.17;49.03
58686;BME280;44465;53.206;-6.106;2023-07-13T07:27:39;101329.78;;;24.17;48.75
58686;BME280;44465;53.206;-6.106;2023-07-13T07:30:05;101321.97;;;24.12;48.74
58686;BME280;44465;53.206;-6.106;2023-07-13T07:32:31;101329.78;;;24.17;48.87
58686;BME280;44465;53.206;-6.106;2023-07-13T07:34:57;101327.16;;;24.15;48.82
58686;BME280;44465;53.206;-6.106;2023-07-13T07:37:23;101326.59;;;24.10;48.83
58686;BME280;44465;53.206;-6.106;2023-07-13T07:39:49;101321.97;;;24.12;48.57
58686;BME280;44465;53.206;-6.106;2023-07-13T07:42:16;101328.34;;;24.11;48.72
58686;BME280;44465;53.206;-6.106;2023-07-13T07:44:41;101327.56;;;24.09;48.64
58686;BME280;44465;53.206;-6.106;2023-07-13T07:47:07;101333.72;;;24.11;49.00
58686;BME280;44465;53.206;-6.106;2023-07-13T07:49:33;101329.28;;;24.10;48.62
58686;BME280;44465;53.206;-6.106;2023-07-13T07:51:58;101333.44;;;24.16;48.89
58686;BME280;44465;53.206;-6.106;2023-07-13T07:54:24;101335.19;;;24.17;48.79
58686;BME280;44465;53.206;-6.106;2023-07-13T07:56:49;101346.78;;;24.17;48.93
58686;BME280;44465;53.206;-6.106;2023-07-13T07:59:15;101329.28;;;24.10;48.83
58686;BME280;44465;53.206;-6.106;2023-07-13T08:01:40;101337.09;;;24.15;48.81
58686;BME280;44465;53.206;-6.106;2023-07-13T08:04:06;101344.19;;;24.16;48.73
58686;BME280;44465;53.206;-6.106;2023-07-13T08:06:32;101347.63;;;24.18;48.81
58686;BME280;44465;53.206;-6.106;2023-07-13T08:08:59;101340.63;;;24.15;48.49
58686;BME280;44465;53.206;-6.106;2023-07-13T08:11:24;101346.97;;;24.14;48.83
58686;BME280;44465;53.206;-6.106;2023-07-13T08:13:50;101346.19;;;24.12;48.84
58686;BME280;44465;53.206;-6.106;2023-07-13T08:16:16;101334.06;;;24.05;48.83
58686;BME280;44465;53.206;-6.106;2023-07-13T08:18:41;101348.13;;;24.10;48.84
58686;BME280;44465;53.206;-6.106;2023-07-13T08:21:08;101349.09;;;24.09;48.66
58686;BME280;44465;53.206;-6.106;2023-07-13T08:23:35;101355.25;;;24.11;48.84
58686;BME280;44465;53.206;-6.106;2023-07-13T08:26:01;101363.09;;;24.14;48.94
58686;BME280;44465;53.206;-6.106;2023-07-13T08:28:27;101361.19;;;24.16;48.76
58686;BME280;44465;53.206;-6.106;2023-07-13T08:30:53;101347.16;;;24.11;48.77
58686;BME280;44465;53.206;-6.106;2023-07-13T08:33:20;101346.78;;;24.17;48.58
58686;BME280;44465;53.206;-6.106;2023-07-13T08:35:47;101351.22;;;24.19;48.80
58686;BME280;44465;53.206;-6.106;2023-07-13T08:38:13;101350.34;;;24.18;48.55
58686;BME280;44465;53.206;-6.106;2023-07-13T08:40:39;101343.31;;;24.15;48.62
58686;BME280;44465;53.206;-6.106;2023-07-13T08:43:09;101352.00;;;24.21;48.70
58686;BME280;44465;53.206;-6.106;2023-07-13T08:45:57;101325.81;;;24.08;48.84
58686;BME280;44465;53.206;-6.106;2023-07-13T08:48:31;101338.31;;;24.09;48.80
58686;BME280;44465;53.206;-6.106;2023-07-13T08:51:02;101338.03;;;24.14;48.71
58686;BME280;44465;53.206;-6.106;2023-07-13T08:53:42;101331.88;;;24.12;48.65
58686;BME280;44465;53.206;-6.106;2023-07-13T08:56:23;101327.56;;;24.09;48.88
58686;BME280;44465;53.206;-6.106;2023-07-13T08:58:56;101339.00;;;24.13;48.94
58686;BME280;44465;53.206;-6.106;2023-07-13T09:04:14;101330.53;;;24.19;48.61
58686;BME280;44465;53.206;-6.106;2023-07-13T09:07:01;101325.16;;;24.19;48.91
58686;BME280;44465;53.206;-6.106;2023-07-13T09:13:26;101335.91;;;24.19;48.91
58686;BME280;44465;53.206;-6.106;2023-07-13T09:15:54;101327.00;;;24.19;48.84
58686;BME280;44465;53.206;-6.106;2023-07-13T09:18:38;101334.69;;;24.25;48.97
58686;BME280;44465;53.206;-6.106;2023-07-13T09:21:43;101336.53;;;24.24;48.80
58686;BME280;44465;53.206;-6.106;2023-07-13T09:26:56;101330.25;;;24.09;48.57
58686;BME280;44465;53.206;-6.106;2023-07-13T09:29:32;101337.75;;;24.19;48.72
58686;BME280;44465;53.206;-6.106;2023-07-13T09:32:02;101333.34;;;24.17;48.67
58686;BME280;44465;53.206;-6.106;2023-07-13T09:34:29;101336.03;;;24.17;48.77
58686;BME280;44465;53.206;-6.106;2023-07-13T09:36:58;101342.97;;;24.22;48.97
58686;BME280;44465;53.206;-6.106;2023-07-13T09:39:30;101348.34;;;24.22;48.98
58686;BME280;44465;53.206;-6.106;2023-07-13T09:44:50;101341.97;;;24.23;48.69
58686;BME280;44465;53.206;-6.106;2023-07-13T09:47:17;101352.50;;;24.27;48.82
58686;BME280;44465;53.206;-6.106;2023-07-13T09:49:43;101342.75;;;24.25;48.76
58686;BME280;44465;53.206;-6.106;2023-07-13T09:52:15;101342.59;;;24.28;48.78
58686;BME280;44465;53.206;-6.106;2023-07-13T09:54:45;101351.44;;;24.30;48.81
58686;BME280;44465;53.206;-6.106;2023-07-13T09:57:19;101345.44;;;24.25;48.62
58686;BME280;44465;53.206;-6.106;2023-07-13T09:59:49;101349.88;;;24.26;48.64
58686;BME280;44465;53.206;-6.106;2023-07-13T10:02:35;101346.78;;;24.17;48.64
58686;BME280;44465;53.206;-6.106;2023-07-13T10:05:06;101347.75;;;24.16;49.06
58686;BME280;44465;53.206;-6.106;2023-07-13T10:07:38;101350.06;;;24.23;48.95
58686;BME280;44465;53.206;-6.106;2023-07-13T10:10:14;101334.47;;;24.13;48.86
58686;BME280;44465;53.206;-6.106;2023-07-13T10:12:40;101348.13;;;24.25;48.95
58686;BME280;44465;53.206;-6.106;2023-07-13T10:15:10;101346.22;;;24.27;48.81
58686;BME280;44465;53.206;-6.106;2023-07-13T10:17:39;101353.34;;;24.28;48.86
58686;BME280;44465;53.206;-6.106;2023-07-13T10:20:05;101342.59;;;24.28;48.97
58686;BME280;44465;53.206;-6.106;2023-07-13T10:22:58;101340.66;;;24.30;48.71
58686;BME280;44465;53.206;-6.106;2023-07-13T10:25:27;101344.13;;;24.32;48.80
58686;BME280;44465;53.206;-6.106;2023-07-13T10:27:59;101354.91;;;24.32;48.92
58686;BME280;44465;53.206;-6.106;2023-07-13T10:30:34;101358.28;;;24.36;48.75
58686;BME280;44465;53.206;-6.106;2023-07-13T10:33:08;101356.44;;;24.36;48.82
58686;BME280;44465;53.206;-6.106;2023-07-13T10:35:37;101356.59;;;24.33;48.88
58686;BME280;44465;53.206;-6.106;2023-07-13T10:38:07;101362.09;;;24.31;49.14
58686;BME280;44465;53.206;-6.106;2023-07-13T10:40:45;101352.00;;;24.21;48.71
58686;BME280;44465;53.206;-6.106;2023-07-13T10:43:27;101364.97;;;24.28;48.68
58686;BME280;44465;53.206;-6.106;2023-07-13T10:45:53;101362.38;;;24.27;48.92
58686;BME280;44465;53.206;-6.106;2023-07-13T10:48:20;101353.34;;;24.28;48.82
58686;BME280;44465;53.206;-6.106;2023-07-13T10:50:49;101354.19;;;24.28;48.83
58686;BME280;44465;53.206;-6.106;2023-07-13T10:53:30;101347.97;;;24.28;49.13
58686;BME280;44465;53.206;-6.106;2023-07-13T10:56:00;101351.16;;;24.35;48.94
58686;BME280;44465;53.206;-6.106;2023-07-13T10:58:31;101347.41;;;24.37;49.05
58686;BME280;44465;53.206;-6.106;2023-07-13T11:03:50;101338.75;;;24.32;48.76
58686;BME280;44465;53.206;-6.106;2023-07-13T11:09:30;101339.31;;;24.37;49.06
58686;BME280;44465;53.206;-6.106;2023-07-13T11:11:59;101347.41;;;24.37;49.27
58686;BME280;44465;53.206;-6.106;2023-07-13T11:14:37;101345.50;;;24.39;48.92
58686;BME280;44465;53.206;-6.106;2023-07-13T11:17:35;101347.28;;;24.39;49.13
58686;BME280;44465;53.206;-6.106;2023-07-13T11:22:53;101328.00;;;24.32;49.23
58686;BME280;44465;53.206;-6.106;2023-07-13T11:25:34;101341.34;;;24.34;49.22
58686;BME280;44465;53.206;-6.106;2023-07-13T11:35:45;101333.38;;;24.32;49.29
58686;BME280;44465;53.206;-6.106;2023-07-13T11:38:19;101327.78;;;24.35;49.23
58686;BME280;44465;53.206;-6.106;2023-07-13T11:40:47;101335.56;;;24.40;49.49
58686;BME280;44465;53.206;-6.106;2023-07-13T11:43:15;101328.66;;;24.36;49.51
58686;BME280;44465;53.206;-6.106;2023-07-13T11:45:42;101328.38;;;24.40;49.56
58686;BME280;44465;53.206;-6.106;2023-07-13T11:48:28;101330.19;;;24.40;49.55
58686;BME280;44465;53.206;-6.106;2023-07-13T11:50:59;101331.25;;;24.37;49.31
58686;BME280;44465;53.206;-6.106;2023-07-13T11:53:28;101327.44;;;24.41;49.38
58686;BME280;44465;53.206;-6.106;2023-07-13T11:55:55;101327.44;;;24.41;49.56
58686;BME280;44465;53.206;-6.106;2023-07-13T11:58:24;101337.97;;;24.44;49.54
58686;BME280;44465;53.206;-6.106;2023-07-13T12:00:50;101341.63;;;24.43;49.61
58686;BME280;44465;53.206;-6.106;2023-07-13T12:03:21;101327.72;;;24.37;49.60
58686;BME280;44465;53.206;-6.106;2023-07-13T12:06:05;101331.63;;;24.31;49.21
58686;BME280;44465;53.206;-6.106;2023-07-13T12:08:37;101338.38;;;24.38;49.43
58686;BME280;44465;53.206;-6.106;2023-07-13T12:11:14;101342.03;;;24.37;49.40
58686;BME280;44465;53.206;-6.106;2023-07-13T12:13:40;101341.06;;;24.38;49.46
58686;BME280;44465;53.206;-6.106;2023-07-13T12:16:15;101329.53;;;24.36;49.20
58686;BME280;44465;53.206;-6.106;2023-07-13T12:18:42;101324.81;;;24.40;49.38
58686;BME280;44465;53.206;-6.106;2023-07-13T12:21:13;101318.69;;;24.38;49.25
58686;BME280;44465;53.206;-6.106;2023-07-13T12:23:43;101321.75;;;24.46;49.04
58686;BME280;44465;53.206;-6.106;2023-07-13T12:26:09;101319.72;;;24.50;49.11
58686;BME280;44465;53.206;-6.106;2023-07-13T12:28:39;101325.91;;;24.52;49.26
58686;BME280;44465;53.206;-6.106;2023-07-13T12:34:02;101332.72;;;24.57;49.14
58686;BME280;44465;53.206;-6.106;2023-07-13T12:36:33;101315.97;;;24.52;48.88
58686;BME280;44465;53.206;-6.106;2023-07-13T12:39:11;101321.06;;;24.57;48.84
58686;BME280;44465;53.206;-6.106;2023-07-13T12:41:38;101324.06;;;24.52;49.11
58686;BME280;44465;53.206;-6.106;2023-07-13T12:44:08;101308.38;;;24.44;49.14
58686;BME280;44465;53.206;-6.106;2023-07-13T12:46:35;101318.97;;;24.47;48.95
58686;BME280;44465;53.206;-6.106;2023-07-13T12:49:00;101313.84;;;24.43;48.91
58686;BME280;44465;53.206;-6.106;2023-07-13T12:51:27;101323.56;;;24.45;48.88
58686;BME280;44465;53.206;-6.106;2023-07-13T12:53:59;101323.56;;;24.45;49.23
58686;BME280;44465;53.206;-6.106;2023-07-13T12:56:32;101320.88;;;24.45;49.27
58686;BME280;44465;53.206;-6.106;2023-07-13T12:59:02;101309.81;;;24.50;49.01
58686;BME280;44465;53.206;-6.106;2023-07-13T13:01:31;101311.38;;;24.54;48.97
58686;BME280;44465;53.206;-6.106;2023-07-13T13:04:01;101311.19;;;24.57;49.02
58686;BME280;44465;53.206;-6.106;2023-07-13T13:06:32;101310.13;;;24.60;48.74
58686;BME280;44465;53.206;-6.106;2023-07-13T13:08:59;101307.44;;;24.60;49.06
58686;BME280;44465;53.206;-6.106;2023-07-13T13:11:26;101295.22;;;24.54;48.94
58686;BME280;44465;53.206;-6.106;2023-07-13T13:13:52;101295.09;;;24.56;48.94
58686;BME280;44465;53.206;-6.106;2023-07-13T13:18:47;101299.72;;;24.54;48.69